Time;durP1;ratioP1;P1;durP2;ratioP2;P2;SDS_P1;SDS_P2;PMS_P1;PMS_P2;Temp;Humidity;BMP_temperature;BMP_pressure;BME280_temperature;BME280_humidity;BME280_pressure;Samples;Min_cycle;Max_cycle;Signal;HPM_P1;HPM_P2
2021/01/16 00:00:44;;;;;;;2.42;1.90;;;16.40;29.70;;;;;;6137566;23;20137;-79
2021/01/16 00:03:18;;;;;;;2.00;1.80;;;16.40;29.80;;;;;;6137177;23;20215;-78
2021/01/16 00:05:45;;;;;;;1.75;1.60;;;16.40;29.80;;;;;;6137793;23;20136;-79
2021/01/16 00:08:14;;;;;;;1.92;1.73;;;16.40;29.70;;;;;;6136605;23;20136;-78
2021/01/16 00:10:45;;;;;;;1.80;1.67;;;16.40;29.90;;;;;;6137309;23;20191;-78
2021/01/16 00:13:33;;;;;;;2.35;1.90;;;16.40;29.80;;;;;;6136321;23;20199;-79
2021/01/16 00:16:03;;;;;;;2.60;1.88;;;16.40;29.90;;;;;;6134414;23;20176;-78
2021/01/16 00:18:36;;;;;;;2.42;1.80;;;16.40;29.90;;;;;;6135928;23;20156;-78
2021/01/16 00:21:03;;;;;;;3.08;1.63;;;16.40;29.90;;;;;;6136373;23;20132;-79
2021/01/16 00:23:30;;;;;;;2.35;1.77;;;16.40;29.80;;;;;;6087004;23;20176;-79
2021/01/16 00:25:56;;;;;;;2.10;1.80;;;16.40;29.90;;;;;;6136737;23;20140;-79
2021/01/16 00:28:29;;;;;;;2.10;1.67;;;16.40;29.90;;;;;;6136085;23;20132;-79
2021/01/16 00:30:59;;;;;;;1.92;1.73;;;16.40;29.90;;;;;;6110428;23;20142;-79
2021/01/16 00:33:35;;;;;;;1.98;1.73;;;16.40;29.90;;;;;;6110767;23;20508;-78
2021/01/16 00:36:05;;;;;;;2.08;1.80;;;16.40;29.90;;;;;;6110376;23;20195;-79
2021/01/16 00:38:39;;;;;;;2.40;2.10;;;16.40;29.80;;;;;;6136573;23;20265;-79
2021/01/16 00:41:06;;;;;;;1.83;1.60;;;16.40;29.90;;;;;;6136085;23;20164;-78
2021/01/16 00:43:32;;;;;;;2.05;1.77;;;16.40;29.90;;;;;;6135575;23;20146;-80
2021/01/16 00:45:59;;;;;;;1.92;1.70;;;16.40;29.90;;;;;;6137183;23;20166;-79
2021/01/16 00:48:26;;;;;;;2.08;1.88;;;16.40;29.90;;;;;;6109720;23;20136;-79
2021/01/16 00:50:54;;;;;;;2.20;1.90;;;16.30;30.00;;;;;;6136408;23;20140;-78
2021/01/16 00:53:22;;;;;;;2.00;1.73;;;16.40;30.00;;;;;;6136898;23;20215;-79
2021/01/16 00:55:51;;;;;;;1.88;1.55;;;16.50;29.90;;;;;;6110561;23;20160;-79
2021/01/16 00:58:18;;;;;;;2.15;1.90;;;16.40;29.90;;;;;;6136211;23;20216;-79
2021/01/16 01:00:47;;;;;;;1.88;1.67;;;16.50;29.90;;;;;;6110755;23;20134;-79
2021/01/16 01:03:35;;;;;;;2.00;1.75;;;16.50;29.90;;;;;;6110319;23;20501;-79
2021/01/16 01:06:02;;;;;;;1.90;1.70;;;16.50;29.90;;;;;;6107376;23;20487;-80
2021/01/16 01:08:36;;;;;;;1.83;1.65;;;16.50;29.90;;;;;;6136628;23;20199;-79
2021/01/16 01:11:03;;;;;;;2.03;1.75;;;16.50;29.90;;;;;;6136661;23;20136;-79
2021/01/16 01:13:29;;;;;;;2.17;1.92;;;16.50;29.80;;;;;;6136292;23;20141;-78
2021/01/16 01:15:56;;;;;;;2.13;1.88;;;16.50;29.80;;;;;;6136386;23;20167;-79
2021/01/16 01:18:22;;;;;;;2.13;1.73;;;16.50;29.90;;;;;;6136124;23;20217;-79
2021/01/16 01:20:50;;;;;;;2.28;1.70;;;16.50;30.00;;;;;;6136806;23;20136;-79
2021/01/16 01:23:16;;;;;;;2.13;1.90;;;16.50;29.90;;;;;;6135433;23;20152;-79
2021/01/16 01:25:43;;;;;;;1.92;1.73;;;16.50;29.90;;;;;;6110187;23;20152;-79
2021/01/16 01:28:09;;;;;;;1.60;1.50;;;16.60;29.90;;;;;;6136489;23;20183;-79
2021/01/16 01:30:36;;;;;;;1.92;1.50;;;16.50;29.90;;;;;;6110195;23;20576;-79
2021/01/16 01:33:02;;;;;;;1.90;1.60;;;16.50;29.90;;;;;;6110315;23;20519;-79
2021/01/16 01:35:29;;;;;;;1.75;1.58;;;16.50;29.90;;;;;;6135903;23;20170;-79
2021/01/16 01:37:55;;;;;;;1.80;1.70;;;16.50;29.90;;;;;;6136050;23;20183;-78
2021/01/16 01:40:24;;;;;;;1.98;1.65;;;16.50;29.90;;;;;;6136364;23;20148;-78
2021/01/16 01:42:52;;;;;;;1.95;1.70;;;16.40;30.00;;;;;;6112708;23;20136;-78
2021/01/16 01:45:18;;;;;;;2.08;1.70;;;16.50;30.00;;;;;;6138754;23;20147;-79
2021/01/16 01:47:46;;;;;;;1.77;1.50;;;16.50;30.00;;;;;;6137474;23;20141;-79
2021/01/16 01:50:14;;;;;;;1.92;1.60;;;16.50;29.90;;;;;;6137839;23;20151;-79
2021/01/16 01:52:41;;;;;;;2.13;1.90;;;16.50;29.90;;;;;;6112763;23;20195;-79
2021/01/16 01:55:11;;;;;;;2.10;1.70;;;16.50;29.90;;;;;;6113184;23;20164;-79
2021/01/16 01:57:39;;;;;;;2.53;1.60;;;16.50;29.90;;;;;;6088276;23;20140;-79
2021/01/16 02:00:09;;;;;;;1.70;1.60;;;16.50;30.00;;;;;;6112095;23;20143;-79
2021/01/16 02:02:36;;;;;;;1.63;1.40;;;16.50;30.00;;;;;;6138605;23;20168;-79
2021/01/16 02:05:05;;;;;;;2.03;1.65;;;16.50;29.90;;;;;;6111790;23;20140;-78
2021/01/16 02:07:38;;;;;;;2.03;1.48;;;16.50;30.00;;;;;;6111884;23;20283;-79
2021/01/16 02:10:24;;;;;;;2.05;1.70;;;16.50;30.00;;;;;;6137783;23;20141;-79
2021/01/16 02:12:54;;;;;;;1.58;1.45;;;16.50;29.90;;;;;;6137816;23;20163;-79
2021/01/16 02:15:35;;;;;;;1.60;1.45;;;16.60;30.00;;;;;;6137582;23;20160;-79
2021/01/16 02:18:20;;;;;;;1.60;1.50;;;16.60;30.00;;;;;;6137879;23;20140;-80
2021/01/16 02:20:50;;;;;;;1.70;1.45;;;16.50;30.00;;;;;;6137791;23;20152;-79
2021/01/16 02:23:26;;;;;;;1.92;1.45;;;16.50;30.00;;;;;;6111408;23;20139;-79
2021/01/16 02:26:17;;;;;;;1.75;1.60;;;16.50;30.00;;;;;;6111706;23;20171;-79
2021/01/16 02:28:58;;;;;;;1.70;1.55;;;16.50;30.00;;;;;;6137074;23;20167;-79
2021/01/16 02:31:49;;;;;;;1.60;1.50;;;16.50;30.00;;;;;;6112071;23;20140;-79
2021/01/16 02:34:36;;;;;;;1.52;1.40;;;16.50;30.00;;;;;;6112593;23;20140;-79
2021/01/16 02:37:23;;;;;;;1.40;1.30;;;16.50;30.00;;;;;;6111680;23;20191;-78
2021/01/16 02:39:56;;;;;;;1.83;1.50;;;16.50;30.70;;;;;;6137438;23;20139;-78
2021/01/16 02:42:47;;;;;;;2.08;1.80;;;16.50;30.00;;;;;;6111566;23;20180;-79
2021/01/16 02:45:43;;;;;;;1.70;1.50;;;16.50;30.00;;;;;;6110417;23;20155;-78
2021/01/16 02:48:43;;;;;;;1.60;1.35;;;16.50;30.00;;;;;;6114489;23;20227;-79
2021/01/16 02:51:34;;;;;;;1.80;1.55;;;16.60;30.00;;;;;;6113543;23;20196;-78
2021/01/16 02:54:01;;;;;;;1.70;1.48;;;16.50;30.00;;;;;;6113364;23;20136;-79
2021/01/16 02:56:28;;;;;;;2.00;1.70;;;16.50;30.00;;;;;;6113391;23;20674;-79
2021/01/16 02:58:55;;;;;;;1.60;1.50;;;16.60;30.00;;;;;;6112355;23;20575;-79
2021/01/16 03:01:21;;;;;;;1.33;1.10;;;16.50;30.00;;;;;;6138715;23;20139;-79
2021/01/16 03:03:48;;;;;;;1.20;1.10;;;16.60;30.00;;;;;;6139873;23;20143;-79
2021/01/16 03:06:15;;;;;;;1.42;1.33;;;16.50;30.00;;;;;;6138855;23;20167;-79
2021/01/16 03:08:42;;;;;;;1.83;1.48;;;16.50;30.00;;;;;;6113285;23;20155;-78
2021/01/16 03:11:08;;;;;;;2.22;1.45;;;16.50;30.00;;;;;;6139095;23;20471;-78
2021/01/16 03:13:34;;;;;;;1.75;1.50;;;16.60;30.00;;;;;;6112952;23;20141;-78
2021/01/16 03:16:03;;;;;;;1.88;1.48;;;16.50;30.00;;;;;;6113238;23;20166;-78
2021/01/16 03:18:31;;;;;;;1.63;1.42;;;16.50;30.00;;;;;;6112605;23;20159;-78
2021/01/16 03:20:58;;;;;;;1.67;1.33;;;16.60;30.10;;;;;;6113113;23;20159;-79
2021/01/16 03:23:25;;;;;;;1.77;1.52;;;16.50;30.00;;;;;;6113147;23;20148;-79
2021/01/16 03:25:51;;;;;;;1.65;1.50;;;16.50;30.00;;;;;;6138798;23;20136;-78
2021/01/16 03:28:18;;;;;;;1.48;1.30;;;16.60;30.10;;;;;;6139392;23;20152;-78
2021/01/16 03:30:44;;;;;;;1.58;1.40;;;16.50;30.00;;;;;;6139084;23;20568;-78
2021/01/16 03:33:11;;;;;;;1.20;1.10;;;16.60;30.10;;;;;;6138702;23;20137;-79
2021/01/16 03:35:37;;;;;;;1.48;1.38;;;16.60;30.10;;;;;;6138860;23;20604;-79
2021/01/16 03:38:04;;;;;;;1.50;1.40;;;16.60;30.10;;;;;;6108107;23;20189;-78
2021/01/16 03:40:32;;;;;;;1.70;1.40;;;16.60;30.10;;;;;;6109506;23;20566;-79
2021/01/16 03:43:06;;;;;;;1.40;1.30;;;16.50;30.10;;;;;;6109463;23;20133;-78
2021/01/16 03:45:33;;;;;;;1.55;1.45;;;16.50;30.10;;;;;;6109236;23;20193;-79
2021/01/16 03:47:59;;;;;;;1.30;1.20;;;16.60;30.10;;;;;;6109246;23;20153;-78
2021/01/16 03:50:26;;;;;;;1.50;1.30;;;16.60;30.10;;;;;;6107501;23;20137;-79
2021/01/16 03:52:52;;;;;;;1.23;1.13;;;16.60;30.10;;;;;;6108680;23;20235;-79
2021/01/16 03:55:18;;;;;;;1.40;1.30;;;16.50;30.10;;;;;;6108727;23;20165;-79
2021/01/16 03:57:45;;;;;;;1.48;1.38;;;16.60;30.20;;;;;;6107452;23;20133;-78
2021/01/16 04:00:12;;;;;;;1.60;1.23;;;16.60;30.10;;;;;;6109291;23;20137;-79
2021/01/16 04:02:39;;;;;;;1.45;1.20;;;16.60;30.10;;;;;;6109253;23;20573;-78
2021/01/16 04:05:07;;;;;;;1.45;1.35;;;16.60;30.20;;;;;;6108995;23;20164;-78
2021/01/16 04:07:34;;;;;;;1.20;1.10;;;16.50;30.20;;;;;;6109210;23;20145;-80
2021/01/16 04:10:01;;;;;;;1.67;1.50;;;16.50;30.30;;;;;;6109081;23;20169;-79
2021/01/16 04:12:28;;;;;;;1.30;1.20;;;16.50;30.20;;;;;;6107299;23;20137;-79
2021/01/16 04:14:56;;;;;;;1.60;1.50;;;16.50;30.20;;;;;;6109329;23;20145;-79
2021/01/16 04:17:26;;;;;;;1.88;1.60;;;16.50;30.30;;;;;;6109327;23;20133;-79
2021/01/16 04:19:53;;;;;;;1.60;1.40;;;16.50;30.20;;;;;;6108703;23;20141;-79
2021/01/16 04:22:19;;;;;;;1.30;1.20;;;16.50;30.20;;;;;;6108946;23;20591;-78
2021/01/16 04:24:54;;;;;;;1.77;1.48;;;16.50;30.30;;;;;;6108998;23;20133;-79
2021/01/16 04:27:20;;;;;;;1.60;1.50;;;16.50;30.30;;;;;;6108537;23;20216;-79
2021/01/16 04:29:48;;;;;;;1.58;1.33;;;16.50;30.20;;;;;;6106449;23;20152;-78
2021/01/16 04:32:14;;;;;;;1.55;1.45;;;16.50;30.30;;;;;;6108720;23;20172;-79
2021/01/16 04:34:41;;;;;;;1.50;1.38;;;16.60;30.30;;;;;;6107509;23;20165;-78
2021/01/16 04:37:06;;;;;;;1.60;1.42;;;16.60;31.00;;;;;;6114127;23;20207;-78
2021/01/16 04:39:33;;;;;;;1.58;1.30;;;16.50;30.30;;;;;;6137616;23;20159;-78
2021/01/16 04:41:59;;;;;;;1.30;1.20;;;16.50;30.40;;;;;;6088446;23;20172;-78
2021/01/16 04:44:25;;;;;;;1.48;1.33;;;16.40;30.40;;;;;;6137890;23;20167;-79
2021/01/16 04:46:52;;;;;;;1.48;1.30;;;16.40;30.40;;;;;;6138554;23;20576;-78
2021/01/16 04:49:18;;;;;;;1.63;1.40;;;16.40;30.40;;;;;;6112605;23;20192;-79
2021/01/16 04:51:47;;;;;;;1.33;1.23;;;16.50;30.40;;;;;;6138349;23;20564;-79
2021/01/16 04:54:15;;;;;;;1.40;1.30;;;16.50;30.40;;;;;;6112286;23;20136;-79
2021/01/16 04:56:42;;;;;;;2.00;1.60;;;16.50;30.30;;;;;;6087320;23;20180;-78
2021/01/16 04:59:08;;;;;;;1.40;1.30;;;16.60;30.50;;;;;;6138512;23;20583;-78
2021/01/16 05:01:35;;;;;;;1.40;1.30;;;16.60;30.30;;;;;;6137381;23;20136;-79
2021/01/16 05:04:01;;;;;;;1.23;1.13;;;16.50;30.30;;;;;;6137723;23;20187;-79
2021/01/16 05:06:28;;;;;;;1.50;1.40;;;16.50;30.40;;;;;;6112330;23;20167;-79
2021/01/16 05:08:55;;;;;;;1.42;1.27;;;16.50;30.40;;;;;;6111959;23;20195;-79
2021/01/16 05:11:24;;;;;;;1.88;1.33;;;16.50;30.40;;;;;;6138791;23;20136;-78
2021/01/16 05:14:03;;;;;;;1.27;1.17;;;16.50;30.50;;;;;;6138054;23;20136;-79
2021/01/16 05:16:30;;;;;;;1.75;1.42;;;16.60;30.50;;;;;;6111787;23;20182;-79
2021/01/16 05:18:57;;;;;;;1.58;1.20;;;16.60;30.40;;;;;;6112031;23;20152;-78
2021/01/16 05:21:25;;;;;;;1.30;1.17;;;16.60;30.40;;;;;;6137306;23;20140;-79
2021/01/16 05:23:51;;;;;;;1.70;1.40;;;16.60;30.50;;;;;;6111778;23;20144;-78
2021/01/16 05:26:18;;;;;;;1.67;1.42;;;16.60;30.50;;;;;;6112087;23;20152;-79
2021/01/16 05:28:52;;;;;;;1.23;1.13;;;16.60;30.30;;;;;;6138282;23;20223;-79
2021/01/16 05:31:19;;;;;;;1.30;1.20;;;16.60;30.40;;;;;;6137754;23;20175;-79
2021/01/16 05:33:47;;;;;;;1.27;1.17;;;16.60;31.00;;;;;;6137244;23;20140;-79
2021/01/16 05:36:13;;;;;;;1.45;1.23;;;16.60;30.50;;;;;;6137213;23;20168;-78
2021/01/16 05:38:40;;;;;;;1.85;1.40;;;16.50;30.40;;;;;;6137761;23;20199;-79
2021/01/16 05:41:12;;;;;;;1.15;1.05;;;16.60;30.50;;;;;;6137471;23;20196;-79
2021/01/16 05:43:39;;;;;;;1.52;1.17;;;16.60;30.50;;;;;;6137404;23;20143;-79
2021/01/16 05:46:14;;;;;;;1.27;1.10;;;16.60;30.50;;;;;;6087986;23;20136;-79
2021/01/16 05:48:54;;;;;;;1.50;1.40;;;16.60;30.50;;;;;;6111784;23;20468;-79
2021/01/16 05:51:29;;;;;;;1.35;1.25;;;16.60;30.40;;;;;;6137550;23;20140;-79
2021/01/16 05:53:56;;;;;;;1.25;1.15;;;16.60;30.40;;;;;;6111756;23;20143;-79
2021/01/16 05:56:26;;;;;;;1.42;1.23;;;16.60;30.40;;;;;;6137343;23;20183;-79
2021/01/16 05:58:52;;;;;;;1.27;1.08;;;16.60;30.50;;;;;;6112096;23;20179;-79
2021/01/16 06:01:42;;;;;;;1.67;1.40;;;16.60;30.50;;;;;;6136797;23;20132;-79
2021/01/16 06:04:10;;;;;;;1.95;1.15;;;16.60;30.50;;;;;;6135491;23;20596;-79
2021/01/16 06:06:37;;;;;;;1.40;1.30;;;16.60;30.50;;;;;;6111345;23;20168;-79
2021/01/16 06:09:04;;;;;;;1.42;1.30;;;16.60;30.50;;;;;;6136883;23;20136;-79
2021/01/16 06:11:37;;;;;;;1.45;1.33;;;16.60;30.50;;;;;;6111170;23;20149;-79
2021/01/16 06:14:07;;;;;;;2.00;1.13;;;16.50;30.50;;;;;;6111062;23;20137;-79
2021/01/16 06:16:53;;;;;;;1.30;1.20;;;16.50;31.30;;;;;;6111661;23;20171;-80
2021/01/16 06:19:44;;;;;;;1.40;1.30;;;16.50;30.60;;;;;;6104752;23;20144;-78
2021/01/16 06:22:11;;;;;;;1.30;1.10;;;16.60;30.70;;;;;;6109792;23;20140;-79
2021/01/16 06:24:38;;;;;;;1.30;1.10;;;16.60;30.50;;;;;;6136956;23;20136;-79
2021/01/16 06:27:06;;;;;;;1.10;1.00;;;16.60;30.50;;;;;;6136524;23;20156;-79
2021/01/16 06:29:33;;;;;;;1.30;1.20;;;16.60;30.50;;;;;;6113330;23;20136;-79
2021/01/16 06:32:10;;;;;;;1.13;1.02;;;16.60;30.50;;;;;;6139330;23;20136;-79
2021/01/16 06:34:40;;;;;;;1.40;1.30;;;16.60;30.50;;;;;;6138281;23;20175;-79
2021/01/16 06:37:10;;;;;;;1.33;1.23;;;16.60;30.50;;;;;;6138228;23;20188;-79
2021/01/16 06:39:45;;;;;;;1.50;1.33;;;16.60;30.60;;;;;;6113537;23;20140;-79
2021/01/16 06:42:14;;;;;;;1.17;1.08;;;16.60;30.50;;;;;;6138815;23;20219;-78
2021/01/16 06:44:40;;;;;;;1.50;1.20;;;16.60;30.60;;;;;;6089007;23;20631;-79
2021/01/16 06:47:07;;;;;;;1.25;1.15;;;16.60;30.60;;;;;;6112400;23;20132;-79
2021/01/16 06:49:34;;;;;;;1.20;1.10;;;16.60;30.60;;;;;;6138776;23;20160;-80
2021/01/16 06:52:04;;;;;;;1.48;1.30;;;16.60;30.70;;;;;;6139089;23;20569;-78
2021/01/16 06:54:31;;;;;;;1.65;1.38;;;16.60;30.60;;;;;;6112344;23;20576;-79
2021/01/16 06:57:08;;;;;;;1.10;1.00;;;16.60;30.60;;;;;;6112348;23;20175;-79
2021/01/16 06:59:39;;;;;;;1.55;1.10;;;16.50;30.70;;;;;;6139149;23;20192;-79
2021/01/16 07:02:32;;;;;;;1.23;1.13;;;16.50;30.70;;;;;;6138439;23;20517;-79
2021/01/16 07:05:00;;;;;;;1.20;1.10;;;16.60;30.80;;;;;;6138619;23;20472;-79
2021/01/16 07:07:30;;;;;;;1.20;1.10;;;16.60;30.70;;;;;;6137917;23;20140;-79
2021/01/16 07:10:18;;;;;;;1.20;1.00;;;16.60;30.70;;;;;;6112053;23;20136;-79
2021/01/16 07:12:53;;;;;;;1.20;1.10;;;16.60;30.60;;;;;;6136776;23;20269;-79
2021/01/16 07:15:31;;;;;;;1.30;1.20;;;16.60;30.70;;;;;;6112036;23;20198;-78
2021/01/16 07:18:17;;;;;;;1.40;1.20;;;16.60;30.60;;;;;;6113260;23;20155;-79
2021/01/16 07:20:44;;;;;;;1.40;1.23;;;16.60;30.80;;;;;;6108982;23;20584;-79
2021/01/16 07:23:10;;;;;;;1.17;1.08;;;16.60;30.70;;;;;;6087601;23;20592;-79
2021/01/16 07:25:36;;;;;;;1.30;1.20;;;16.60;30.70;;;;;;6111337;23;20188;-78
2021/01/16 07:28:04;;;;;;;1.38;1.27;;;16.60;30.60;;;;;;6137657;23;20136;-79
2021/01/16 07:30:30;;;;;;;0.98;0.88;;;16.70;30.70;;;;;;6136545;23;20445;-78
2021/01/16 07:32:57;;;;;;;1.17;1.00;;;16.60;30.70;;;;;;6111074;23;20146;-79
2021/01/16 07:35:25;;;;;;;1.30;1.20;;;16.60;30.80;;;;;;6110679;23;20171;-78
2021/01/16 07:37:52;;;;;;;1.25;1.15;;;16.60;30.80;;;;;;6136361;23;20184;-78
2021/01/16 07:40:22;;;;;;;1.25;1.10;;;16.50;30.90;;;;;;6063196;23;20210;-78
2021/01/16 07:42:51;;;;;;;1.20;1.10;;;16.60;30.80;;;;;;6110106;23;20144;-79
2021/01/16 07:45:31;;;;;;;0.93;0.90;;;16.60;30.80;;;;;;6136357;23;20141;-79
2021/01/16 07:48:19;;;;;;;1.17;1.08;;;16.60;30.80;;;;;;6136309;23;20140;-79
2021/01/16 07:50:46;;;;;;;1.20;0.95;;;16.50;31.00;;;;;;6108460;23;20150;-79
2021/01/16 07:53:12;;;;;;;1.23;1.08;;;16.50;30.90;;;;;;6110605;23;20171;-79
2021/01/16 07:55:37;;;;;;;1.52;1.20;;;16.60;30.90;;;;;;6110377;23;20172;-79
2021/01/16 07:58:33;;;;;;;1.30;1.10;;;16.60;30.90;;;;;;6112059;23;20239;-78
2021/01/16 08:01:00;;;;;;;1.30;1.20;;;16.60;30.90;;;;;;6111349;23;20144;-79
2021/01/16 08:03:26;;;;;;;1.10;0.93;;;16.60;30.80;;;;;;6137150;23;20188;-79
2021/01/16 08:06:23;;;;;;;1.90;1.10;;;16.60;30.80;;;;;;6137449;23;20136;-79
2021/01/16 08:08:55;;;;;;;1.00;0.90;;;16.60;30.80;;;;;;6113432;23;20509;-79
2021/01/16 08:11:43;;;;;;;1.25;1.15;;;16.60;30.80;;;;;;6113130;23;20169;-79
2021/01/16 08:14:10;;;;;;;1.17;1.00;;;16.60;30.90;;;;;;6110203;23;20144;-79
2021/01/16 08:16:36;;;;;;;1.35;1.17;;;16.70;30.80;;;;;;6112178;23;20175;-79
2021/01/16 08:19:11;;;;;;;1.20;1.10;;;16.60;30.80;;;;;;6111575;23;20151;-79
2021/01/16 08:21:58;;;;;;;1.23;1.10;;;16.60;31.00;;;;;;6137060;23;20144;-79
2021/01/16 08:24:33;;;;;;;1.33;1.13;;;16.70;30.90;;;;;;6111207;23;20140;-79
2021/01/16 08:27:01;;;;;;;1.42;1.25;;;16.70;30.80;;;;;;6112132;23;20135;-79
2021/01/16 08:29:28;;;;;;;1.17;1.08;;;16.80;30.80;;;;;;6137114;23;20143;-79
2021/01/16 08:32:07;;;;;;;1.23;1.05;;;16.80;30.80;;;;;;6133817;23;20235;-79
2021/01/16 08:34:57;;;;;;;1.10;1.00;;;16.90;30.70;;;;;;6087003;23;20171;-81
2021/01/16 08:37:36;;;;;;;1.60;1.10;;;16.80;30.70;;;;;;6111003;23;20582;-79
2021/01/16 08:40:06;;;;;;;1.20;1.10;;;16.90;30.70;;;;;;6114346;23;20155;-77
2021/01/16 08:42:34;;;;;;;1.30;1.00;;;16.90;30.60;;;;;;6139587;23;20137;-77
2021/01/16 08:45:03;;;;;;;1.00;0.90;;;16.80;30.80;;;;;;6138686;23;20171;-77
2021/01/16 08:47:30;;;;;;;1.15;1.05;;;16.70;30.80;;;;;;6136462;23;20280;-77
2021/01/16 08:50:12;;;;;;;1.20;1.10;;;16.80;30.90;;;;;;6110559;23;20151;-77
2021/01/16 08:52:39;;;;;;;1.10;1.00;;;16.80;30.80;;;;;;6136597;23;20171;-78
2021/01/16 08:55:07;;;;;;;1.35;1.17;;;16.80;30.90;;;;;;6137270;23;20196;-78
2021/01/16 08:57:35;;;;;;;1.13;1.02;;;16.80;30.90;;;;;;6136078;23;20185;-79
2021/01/16 09:00:19;;;;;;;1.35;1.20;;;16.80;30.80;;;;;;6086604;23;20140;-79
2021/01/16 09:03:09;;;;;;;1.10;1.00;;;16.80;30.90;;;;;;6109610;23;20176;-78
2021/01/16 09:05:36;;;;;;;0.70;0.70;;;16.80;31.00;;;;;;6018274;23;20187;-79
2021/01/16 09:08:37;;;;;;;1.25;1.00;;;16.80;31.10;;;;;;5995283;23;20154;-78
2021/01/16 09:11:13;;;;;;;0.98;0.90;;;16.70;31.10;;;;;;5936345;24;20160;-78
2021/01/16 09:14:01;;;;;;;1.10;1.00;;;16.70;31.40;;;;;;5936081;24;20497;-79
2021/01/16 09:16:50;;;;;;;1.00;0.95;;;16.80;31.50;;;;;;5934660;24;20199;-79
2021/01/16 09:19:37;;;;;;;1.20;1.10;;;16.80;31.70;;;;;;5933939;24;20149;-78
2021/01/16 09:22:41;;;;;;;2.22;1.20;;;16.70;31.70;;;;;;5932999;24;20148;-78
2021/01/16 09:25:46;;;;;;;1.40;1.20;;;16.70;32.00;;;;;;5934424;24;20286;-79
2021/01/16 09:28:40;;;;;;;1.42;0.95;;;16.70;32.10;;;;;;5933462;24;20208;-78
2021/01/16 09:31:47;;;;;;;1.20;1.10;;;16.70;32.10;;;;;;5934156;24;20145;-78
2021/01/16 09:34:36;;;;;;;1.63;1.20;;;16.70;31.90;;;;;;5930225;24;20209;-78
2021/01/16 09:37:02;;;;;;;0.95;0.85;;;16.90;31.60;;;;;;5931521;24;20218;-78
2021/01/16 09:39:47;;;;;;;17.65;1.63;;;16.90;31.60;;;;;;5929265;24;20161;-78
2021/01/16 09:42:43;;;;;;;130.65;7.82;;;16.90;31.60;;;;;;5956702;23;20155;-78
2021/01/16 09:45:27;;;;;;;63.63;4.53;;;16.90;31.80;;;;;;5990040;23;20143;-78
2021/01/16 09:47:53;;;;;;;40.80;2.45;;;16.90;32.10;;;;;;6129901;23;20152;-78
2021/01/16 09:50:21;;;;;;;42.38;2.53;;;16.90;32.20;;;;;;6130995;23;20146;-78
2021/01/16 09:52:56;;;;;;;21.55;2.35;;;16.90;32.20;;;;;;6107301;23;20175;-78
2021/01/16 09:55:32;;;;;;;19.70;2.22;;;17.00;32.30;;;;;;6131705;23;20163;-78
2021/01/16 09:58:00;;;;;;;17.63;2.58;;;17.00;32.30;;;;;;6131765;23;20144;-78
2021/01/16 10:00:35;;;;;;;24.63;2.40;;;17.10;32.40;;;;;;6106168;23;20207;-77
2021/01/16 10:03:31;;;;;;;26.00;2.65;;;17.00;32.60;;;;;;6131697;23;20215;-78
2021/01/16 10:06:05;;;;;;;18.48;1.92;;;17.10;32.80;;;;;;6107396;23;20140;-77
2021/01/16 10:08:35;;;;;;;17.20;1.80;;;17.00;33.00;;;;;;6084404;23;20160;-77
2021/01/16 10:11:02;;;;;;;12.38;1.73;;;17.00;33.10;;;;;;6132312;23;20143;-77
2021/01/16 10:13:31;;;;;;;17.77;2.08;;;17.10;33.10;;;;;;6131917;23;20183;-77
2021/01/16 10:16:03;;;;;;;18.90;1.92;;;17.00;34.10;;;;;;6080593;23;20199;-79
2021/01/16 10:18:31;;;;;;;19.38;2.58;;;16.90;33.60;;;;;;6134782;23;20171;-77
2021/01/16 10:21:00;;;;;;;11.98;1.75;;;16.90;33.80;;;;;;6106461;23;20148;-76
2021/01/16 10:23:28;;;;;;;11.73;1.80;;;16.90;34.10;;;;;;6134916;23;20155;-77
2021/01/16 10:26:18;;;;;;;14.35;2.58;;;16.90;34.20;;;;;;6108436;23;20133;-77
2021/01/16 10:28:54;;;;;;;11.23;1.60;;;16.90;34.20;;;;;;6131793;23;20137;-77
2021/01/16 10:31:24;;;;;;;19.33;2.80;;;16.90;34.10;;;;;;6131594;23;20132;-77
2021/01/16 10:33:51;;;;;;;13.30;2.15;;;16.90;34.20;;;;;;6109196;23;20183;-77
2021/01/16 10:36:18;;;;;;;16.05;2.15;;;16.90;34.40;;;;;;6136260;23;20164;-78
2021/01/16 10:38:51;;;;;;;15.60;1.98;;;16.90;34.40;;;;;;6133438;23;20204;-77
2021/01/16 10:41:31;;;;;;;23.33;2.65;;;16.80;34.50;;;;;;6109536;23;20163;-77
2021/01/16 10:44:11;;;;;;;9.27;1.80;;;16.90;34.40;;;;;;6136313;23;20556;-76
2021/01/16 10:46:42;;;;;;;15.68;2.00;;;17.00;35.10;;;;;;6114421;23;20136;-78
2021/01/16 10:49:14;;;;;;;13.32;2.33;;;16.90;34.70;;;;;;6139833;23;20143;-78
2021/01/16 10:51:52;;;;;;;13.68;2.08;;;16.90;34.70;;;;;;6114183;23;20592;-79
2021/01/16 10:54:19;;;;;;;8.98;2.90;;;16.90;34.80;;;;;;6139164;23;20140;-78
2021/01/16 10:57:01;;;;;;;13.85;2.00;;;16.80;35.00;;;;;;6137341;23;20164;-78
2021/01/16 10:59:29;;;;;;;7.03;1.90;;;16.80;35.20;;;;;;6138474;23;20197;-78
2021/01/16 11:01:55;;;;;;;10.32;1.58;;;16.80;35.30;;;;;;6112637;23;20171;-78
2021/01/16 11:04:32;;;;;;;12.88;1.92;;;16.80;35.10;;;;;;6137179;23;20139;-78
2021/01/16 11:06:59;;;;;;;12.50;2.00;;;16.80;35.00;;;;;;6112179;23;20226;-78
2021/01/16 11:09:34;;;;;;;5.63;1.58;;;16.90;34.80;;;;;;6137067;23;20200;-77
2021/01/16 11:12:07;;;;;;;8.18;1.92;;;16.90;34.90;;;;;;6112339;23;20271;-78
2021/01/16 11:14:40;;;;;;;9.75;1.73;;;16.90;34.80;;;;;;6107958;23;20608;-79
2021/01/16 11:17:12;;;;;;;12.23;2.63;;;17.00;34.90;;;;;;6110760;23;20245;-78
2021/01/16 11:19:40;;;;;;;10.02;1.80;;;16.90;34.90;;;;;;6111705;23;20576;-79
2021/01/16 11:22:13;;;;;;;8.57;1.88;;;16.90;34.90;;;;;;6139224;23;20133;-78
2021/01/16 11:24:54;;;;;;;10.80;1.70;;;17.00;34.90;;;;;;6113939;23;20124;-77
2021/01/16 11:27:51;;;;;;;7.65;1.80;;;16.90;34.90;;;;;;6139173;23;20159;-78
2021/01/16 11:30:18;;;;;;;10.25;1.90;;;17.00;34.80;;;;;;6139524;23;20164;-78
2021/01/16 11:32:44;;;;;;;6.38;1.70;;;17.00;34.80;;;;;;6113377;23;20152;-78
2021/01/16 11:35:11;;;;;;;9.18;1.58;;;17.00;35.00;;;;;;6114437;23;20211;-78
2021/01/16 11:37:50;;;;;;;8.13;1.60;;;16.90;35.10;;;;;;6108119;23;20189;-78
2021/01/16 11:40:23;;;;;;;3.53;1.42;;;16.90;35.80;;;;;;6109046;23;20140;-77
2021/01/16 11:43:07;;;;;;;6.07;1.42;;;16.90;35.30;;;;;;6109713;23;20137;-77
2021/01/16 11:45:34;;;;;;;11.13;1.60;;;16.90;35.30;;;;;;6109931;23;20159;-77
2021/01/16 11:48:01;;;;;;;5.88;1.77;;;16.90;35.40;;;;;;6107837;23;20168;-78
2021/01/16 11:50:34;;;;;;;4.97;1.35;;;16.80;35.60;;;;;;6108997;23;20220;-78
2021/01/16 11:53:16;;;;;;;11.10;1.75;;;17.00;35.30;;;;;;6109051;23;20140;-77
2021/01/16 11:55:43;;;;;;;4.57;1.40;;;17.00;35.20;;;;;;6110112;23;20164;-77
2021/01/16 11:58:17;;;;;;;10.52;1.73;;;17.00;35.20;;;;;;6108946;23;20133;-77
2021/01/16 12:00:44;;;;;;;5.03;1.38;;;17.10;35.20;;;;;;6108891;23;20128;-76
2021/01/16 12:03:11;;;;;;;5.20;1.90;;;17.10;35.10;;;;;;6107899;23;20181;-77
2021/01/16 12:05:46;;;;;;;6.60;1.50;;;17.10;35.30;;;;;;6108515;23;20164;-78
2021/01/16 12:08:16;;;;;;;3.42;1.45;;;17.00;35.30;;;;;;6105428;23;20136;-77
2021/01/16 12:10:43;;;;;;;2.83;1.30;;;17.00;35.30;;;;;;6108931;23;20148;-77
2021/01/16 12:13:12;;;;;;;5.97;1.42;;;17.00;35.30;;;;;;6108507;23;20137;-77
2021/01/16 12:15:39;;;;;;;6.00;1.50;;;17.00;35.50;;;;;;6109582;23;20176;-78
2021/01/16 12:18:05;;;;;;;5.55;1.27;;;16.90;35.60;;;;;;6109175;23;20509;-77
2021/01/16 12:20:32;;;;;;;7.65;1.63;;;16.90;35.80;;;;;;6109041;23;20180;-78
2021/01/16 12:23:19;;;;;;;5.13;1.33;;;16.90;35.80;;;;;;6110117;23;20133;-77
2021/01/16 12:25:49;;;;;;;4.53;1.10;;;16.90;35.80;;;;;;6108985;23;20149;-76
2021/01/16 12:28:24;;;;;;;5.38;1.25;;;16.90;35.80;;;;;;6110860;23;20141;-77
2021/01/16 12:30:59;;;;;;;8.85;1.45;;;16.90;35.90;;;;;;6085099;23;20148;-77
2021/01/16 12:33:25;;;;;;;6.07;1.60;;;16.90;35.80;;;;;;6109108;23;20147;-77
2021/01/16 12:35:55;;;;;;;5.90;1.55;;;17.00;35.70;;;;;;6109932;23;20169;-77
2021/01/16 12:38:21;;;;;;;3.58;1.60;;;16.90;36.40;;;;;;6130217;23;20191;-77
2021/01/16 12:40:48;;;;;;;6.18;1.30;;;16.90;35.80;;;;;;6139787;23;20138;-77
2021/01/16 12:43:15;;;;;;;6.38;1.38;;;16.90;35.80;;;;;;6114477;23;20137;-77
2021/01/16 12:45:41;;;;;;;5.82;1.40;;;16.90;35.90;;;;;;6113353;23;20136;-77
2021/01/16 12:48:08;;;;;;;3.35;1.35;;;16.90;36.10;;;;;;6140058;23;20140;-78
2021/01/16 12:50:35;;;;;;;3.55;1.40;;;16.90;36.00;;;;;;6113496;23;20152;-77
2021/01/16 12:53:10;;;;;;;3.03;1.48;;;16.90;35.80;;;;;;6089534;23;20569;-77
2021/01/16 12:55:37;;;;;;;5.43;1.52;;;16.90;35.80;;;;;;6113190;23;20163;-78
2021/01/16 12:58:03;;;;;;;4.82;1.25;;;16.90;35.80;;;;;;6138597;23;20136;-78
2021/01/16 13:00:30;;;;;;;5.35;1.30;;;16.90;35.80;;;;;;6139093;23;20611;-77
2021/01/16 13:02:58;;;;;;;4.10;1.20;;;16.90;35.90;;;;;;6137637;23;20159;-77
2021/01/16 13:05:35;;;;;;;3.28;1.38;;;16.90;36.00;;;;;;6139088;23;20141;-77
2021/01/16 13:08:06;;;;;;;7.68;1.60;;;16.90;36.20;;;;;;6112657;23;20140;-77
2021/01/16 13:10:54;;;;;;;2.95;1.30;;;16.80;36.40;;;;;;6138899;23;20149;-78